createdAt,value
2022-12-12T00:00:45.722Z,2.96
2022-12-12T00:03:13.821Z,2.98
2022-12-12T00:05:42.135Z,2.99
2022-12-12T00:08:09.944Z,3.00
2022-12-12T00:10:39.104Z,2.99
2022-12-12T00:13:07.077Z,2.99
2022-12-12T00:15:34.820Z,3.01
2022-12-12T00:18:02.644Z,3.01
2022-12-12T00:20:30.497Z,2.97
2022-12-12T00:22:58.269Z,2.95
2022-12-12T00:25:26.024Z,2.95
2022-12-12T00:27:55.186Z,2.94
2022-12-12T00:30:23.370Z,2.93
2022-12-12T00:32:51.115Z,2.86
2022-12-12T00:35:19.049Z,2.80
2022-12-12T00:37:46.822Z,2.80
2022-12-12T00:40:14.773Z,2.81
2022-12-12T00:42:42.814Z,2.84
2022-12-12T00:45:12.978Z,2.88
2022-12-12T00:47:40.865Z,2.88
2022-12-12T00:50:09.761Z,2.89
2022-12-12T00:52:37.546Z,2.92
2022-12-12T00:55:06.199Z,2.88
2022-12-12T00:57:34.391Z,2.85
2022-12-12T01:00:02.096Z,2.87
2022-12-12T01:02:31.480Z,2.89
2022-12-12T01:04:59.271Z,2.92
2022-12-12T01:07:27.097Z,2.93
2022-12-12T01:09:54.849Z,2.91
2022-12-12T01:12:22.604Z,2.92
2022-12-12T01:14:50.343Z,2.93
2022-12-12T01:17:18.172Z,2.94
2022-12-12T01:19:47.300Z,2.97
2022-12-12T01:22:15.395Z,2.99
2022-12-12T01:24:43.442Z,2.98
2022-12-12T01:27:11.514Z,2.94
2022-12-12T01:29:39.335Z,2.89
2022-12-12T01:32:07.148Z,2.88
2022-12-12T01:34:34.924Z,2.88
2022-12-12T01:37:04.217Z,2.91
2022-12-12T01:39:32.045Z,2.89
2022-12-12T01:41:59.806Z,2.85
2022-12-12T01:44:44.520Z,2.80
2022-12-12T01:47:14.131Z,2.80
2022-12-12T01:49:44.619Z,2.79
2022-12-12T01:52:17.950Z,2.78
2022-12-12T01:54:48.883Z,2.80
2022-12-12T01:57:22.344Z,2.83
2022-12-12T01:59:50.282Z,2.84
2022-12-12T02:02:18.635Z,2.86
2022-12-12T02:04:46.848Z,2.89
2022-12-12T02:07:17.809Z,2.92
2022-12-12T02:09:47.264Z,2.93
2022-12-12T02:12:15.965Z,2.94
2022-12-12T02:14:49.008Z,2.95
2022-12-12T02:17:33.992Z,2.91
2022-12-12T02:20:43.524Z,2.86
2022-12-12T02:23:42.912Z,2.84
2022-12-12T02:26:49.079Z,2.85
2022-12-12T02:30:04.194Z,2.81
2022-12-12T02:32:50.885Z,2.83
2022-12-12T02:35:27.968Z,2.81
2022-12-12T02:38:07.964Z,2.80
2022-12-12T02:40:43.805Z,2.81
2022-12-12T02:43:17.507Z,2.80
2022-12-12T02:45:49.513Z,2.78
2022-12-12T02:48:25.026Z,2.76
2022-12-12T02:50:57.326Z,2.76
2022-12-12T02:53:25.638Z,2.77
2022-12-12T02:56:03.485Z,2.75
2022-12-12T02:58:32.270Z,2.79
2022-12-12T03:01:12.320Z,2.79
2022-12-12T03:04:03.207Z,2.81
2022-12-12T03:07:01.950Z,2.78
2022-12-12T03:09:42.300Z,2.76
2022-12-12T03:12:13.910Z,2.75
2022-12-12T03:14:54.345Z,2.73
2022-12-12T03:17:29.888Z,2.72
2022-12-12T03:20:04.701Z,2.72
2022-12-12T03:22:39.102Z,2.71
2022-12-12T03:25:13.238Z,2.71
2022-12-12T03:27:48.848Z,2.70
2022-12-12T03:30:18.855Z,2.69
2022-12-12T03:32:53.238Z,2.68
2022-12-12T03:35:26.513Z,2.66
2022-12-12T03:37:59.338Z,2.64
2022-12-12T03:40:32.742Z,2.64
2022-12-12T03:43:04.366Z,2.61
2022-12-12T03:45:38.123Z,2.61
2022-12-12T03:48:12.214Z,2.61
2022-12-12T03:50:45.811Z,2.60
2022-12-12T03:53:19.087Z,2.59
2022-12-12T03:55:52.203Z,2.60
2022-12-12T03:58:24.883Z,2.61
2022-12-12T04:00:55.898Z,2.65
2022-12-12T04:03:28.845Z,2.64
2022-12-12T04:06:22.269Z,2.65
2022-12-12T04:09:04.952Z,2.63
2022-12-12T04:11:55.997Z,2.61
2022-12-12T04:14:41.944Z,2.58
2022-12-12T04:17:14.147Z,2.57
2022-12-12T04:20:08.984Z,2.57
2022-12-12T04:23:03.221Z,2.52
2022-12-12T04:25:59.570Z,2.49
2022-12-12T04:28:29.621Z,2.47
2022-12-12T04:31:02.906Z,2.46
2022-12-12T04:33:42.417Z,2.42
2022-12-12T04:36:13.584Z,2.40
2022-12-12T04:38:44.164Z,2.39
2022-12-12T04:41:15.206Z,2.37
2022-12-12T04:43:47.692Z,2.35
2022-12-12T04:46:18.599Z,2.34
2022-12-12T04:48:53.603Z,2.32
2022-12-12T04:51:29.459Z,2.29
2022-12-12T04:54:04.436Z,2.27
2022-12-12T04:56:35.358Z,2.26
2022-12-12T04:59:04.136Z,2.25
2022-12-12T05:01:39.657Z,2.26
2022-12-12T05:04:13.777Z,2.27
2022-12-12T05:06:46.186Z,2.28
2022-12-12T05:09:17.576Z,2.29
2022-12-12T05:11:45.535Z,2.28
2022-12-12T05:14:17.087Z,2.26
2022-12-12T05:16:48.445Z,2.24
2022-12-12T05:19:16.281Z,2.20
2022-12-12T05:21:44.077Z,2.16
2022-12-12T05:24:11.831Z,2.13
2022-12-12T05:26:41.073Z,2.10
2022-12-12T05:29:08.814Z,2.08
2022-12-12T05:31:36.762Z,2.05
2022-12-12T05:34:05.107Z,2.02
2022-12-12T05:36:33.059Z,1.97
2022-12-12T05:39:00.943Z,1.91
2022-12-12T05:41:28.732Z,1.86
2022-12-12T05:43:57.912Z,1.84
2022-12-12T05:46:26.045Z,1.84
2022-12-12T05:48:53.820Z,1.85
2022-12-12T05:51:22.425Z,1.84
2022-12-12T05:53:50.426Z,1.84
2022-12-12T05:56:18.234Z,1.83
2022-12-12T05:58:46.016Z,1.81
2022-12-12T06:01:15.178Z,1.81
2022-12-12T06:03:43.068Z,1.80
2022-12-12T06:06:10.999Z,1.80
2022-12-12T06:08:38.772Z,1.82
2022-12-12T06:11:07.609Z,1.82
2022-12-12T06:13:35.914Z,1.84
2022-12-12T06:16:07.453Z,1.82
2022-12-12T06:18:36.731Z,1.82
2022-12-12T06:21:06.211Z,1.81
2022-12-12T06:23:37.197Z,1.80
2022-12-12T06:26:05.255Z,1.79
2022-12-12T06:28:33.443Z,1.79
2022-12-12T06:31:02.651Z,1.78
2022-12-12T06:33:32.152Z,1.75
2022-12-12T06:36:03.343Z,1.70
2022-12-12T06:38:32.148Z,1.70
2022-12-12T06:41:00.109Z,1.67
2022-12-12T06:43:27.877Z,1.66
2022-12-12T06:46:02.004Z,1.62
2022-12-12T06:48:30.721Z,1.63
2022-12-12T06:50:58.821Z,1.63
2022-12-12T06:53:28.025Z,1.62
2022-12-12T06:55:55.819Z,1.61
2022-12-12T06:58:23.651Z,1.60
2022-12-12T07:00:52.541Z,1.59
2022-12-12T07:03:20.936Z,1.57
2022-12-12T07:05:48.908Z,1.57
2022-12-12T07:08:17.650Z,1.55
2022-12-12T07:10:48.585Z,1.53
2022-12-12T07:13:16.591Z,1.54
2022-12-12T07:15:45.588Z,1.54
2022-12-12T07:18:13.748Z,1.53
2022-12-12T07:20:42.141Z,1.53
2022-12-12T07:23:10.794Z,1.50
2022-12-12T07:25:39.711Z,1.48
2022-12-12T07:28:10.124Z,1.47
2022-12-12T07:30:40.696Z,1.44
2022-12-12T07:33:09.001Z,1.42
2022-12-12T07:35:37.165Z,1.38
2022-12-12T07:38:05.780Z,1.35
2022-12-12T07:40:34.074Z,1.34
2022-12-12T07:43:02.168Z,1.31
2022-12-12T07:45:31.698Z,1.27
2022-12-12T07:47:59.528Z,1.22
2022-12-12T07:50:27.276Z,1.18
2022-12-12T07:52:55.049Z,1.16
2022-12-12T07:55:22.826Z,1.15
2022-12-12T07:57:50.578Z,1.12
2022-12-12T08:00:22.484Z,1.10
2022-12-12T08:02:51.584Z,1.06
2022-12-12T08:05:19.469Z,1.03
2022-12-12T08:07:47.446Z,1.01
2022-12-12T08:10:15.474Z,1.01
2022-12-12T08:12:43.430Z,1.00
2022-12-12T08:15:16.772Z,0.99
2022-12-12T08:17:44.604Z,1.01
2022-12-12T08:20:13.964Z,1.03
2022-12-12T08:22:42.142Z,1.04
2022-12-12T08:25:10.733Z,1.04
2022-12-12T08:27:38.988Z,1.03
2022-12-12T08:30:08.595Z,1.02
2022-12-12T08:32:37.214Z,1.01
2022-12-12T08:35:05.803Z,1.00
2022-12-12T08:37:35.155Z,0.99
2022-12-12T08:40:03.273Z,0.99
2022-12-12T08:42:31.096Z,0.98
2022-12-12T08:44:58.869Z,0.97
2022-12-12T08:47:27.186Z,0.97
2022-12-12T08:49:55.021Z,0.99
2022-12-12T08:52:22.784Z,1.00
2022-12-12T08:54:51.949Z,1.00
2022-12-12T08:57:25.644Z,1.00
2022-12-12T08:59:53.940Z,1.01
2022-12-12T09:02:21.831Z,0.99
2022-12-12T09:04:49.645Z,1.00
2022-12-12T09:07:17.472Z,1.00
2022-12-12T09:09:45.513Z,0.98
2022-12-12T09:12:15.546Z,1.01
2022-12-12T09:14:43.314Z,1.01
2022-12-12T09:17:11.122Z,1.02
2022-12-12T09:19:39.178Z,1.04
2022-12-12T09:22:06.963Z,1.07
2022-12-12T09:24:34.719Z,1.11
2022-12-12T09:27:02.619Z,1.14
2022-12-12T09:29:31.993Z,1.17
2022-12-12T09:31:59.912Z,1.20
2022-12-12T09:34:28.050Z,1.20
2022-12-12T09:36:55.853Z,1.21
2022-12-12T09:39:23.668Z,1.22
2022-12-12T09:41:51.535Z,1.23
2022-12-12T09:44:22.455Z,1.26
2022-12-12T09:46:55.490Z,1.25
2022-12-12T09:49:28.313Z,1.27
2022-12-12T09:51:58.524Z,1.28
2022-12-12T09:54:27.794Z,1.29
2022-12-12T09:57:06.216Z,1.31
2022-12-12T09:59:41.845Z,1.29
2022-12-12T10:02:29.101Z,1.26
2022-12-12T10:05:02.702Z,1.30
2022-12-12T10:07:37.645Z,1.34
2022-12-12T10:10:18.429Z,1.34
2022-12-12T10:12:47.628Z,1.36
2022-12-12T10:15:26.310Z,1.41
2022-12-12T10:17:58.400Z,1.46
2022-12-12T10:20:28.763Z,1.52
2022-12-12T10:23:03.276Z,1.55
2022-12-12T10:25:40.660Z,1.59
2022-12-12T10:28:12.844Z,1.65
2022-12-12T10:30:55.670Z,1.67
2022-12-12T10:33:33.418Z,1.69
2022-12-12T10:36:10.719Z,1.73
2022-12-12T10:39:00.030Z,1.76
2022-12-12T10:41:35.348Z,1.81
2022-12-12T10:44:06.726Z,1.84
2022-12-12T10:46:41.291Z,1.83
2022-12-12T10:49:16.258Z,1.84
2022-12-12T10:51:46.710Z,1.84
2022-12-12T10:54:19.344Z,1.85
2022-12-12T10:57:07.905Z,1.85
2022-12-12T10:59:46.305Z,1.91
2022-12-12T11:02:36.835Z,1.90
2022-12-12T11:05:17.354Z,1.93
2022-12-12T11:07:47.551Z,1.99
2022-12-12T11:10:33.449Z,2.02
2022-12-12T11:13:03.925Z,2.06
2022-12-12T11:15:39.684Z,2.05
2022-12-12T11:18:08.712Z,2.09
2022-12-12T11:20:45.937Z,2.08
2022-12-12T11:23:19.608Z,2.09
2022-12-12T11:25:55.224Z,2.11
2022-12-12T11:28:25.488Z,2.13
2022-12-12T11:30:55.680Z,2.14
2022-12-12T11:33:32.052Z,2.17
2022-12-12T11:36:06.440Z,2.19
2022-12-12T11:38:40.847Z,2.22
2022-12-12T11:41:11.462Z,2.29
2022-12-12T11:43:55.171Z,2.30
2022-12-12T11:46:26.445Z,2.34
2022-12-12T11:49:00.781Z,2.33
2022-12-12T11:51:35.972Z,2.33
2022-12-12T11:54:05.918Z,2.34
2022-12-12T11:56:43.097Z,2.33
2022-12-12T11:59:55.860Z,2.31
2022-12-12T12:02:57.062Z,2.31
2022-12-12T12:05:33.165Z,2.34
2022-12-12T12:08:17.191Z,2.32
2022-12-12T12:10:57.053Z,2.36
2022-12-12T12:13:41.875Z,2.38
2022-12-12T12:16:17.086Z,2.39
2022-12-12T12:18:59.534Z,2.36
2022-12-12T12:21:38.393Z,2.41
2022-12-12T12:24:33.849Z,2.42
2022-12-12T12:27:09.885Z,2.44
2022-12-12T12:29:53.312Z,2.44
2022-12-12T12:32:29.824Z,2.45
2022-12-12T12:35:11.641Z,2.42
2022-12-12T12:37:54.147Z,2.43
2022-12-12T12:40:39.878Z,2.43
2022-12-12T12:43:30.891Z,2.47
2022-12-12T12:46:08.520Z,2.52
2022-12-12T12:48:40.313Z,2.59
2022-12-12T12:51:14.632Z,2.61
2022-12-12T12:53:47.450Z,2.61
2022-12-12T12:56:26.256Z,2.59
2022-12-12T12:58:59.188Z,2.60
2022-12-12T13:01:30.485Z,2.58
2022-12-12T13:04:04.002Z,2.58
2022-12-12T13:06:40.358Z,2.60
2022-12-12T13:09:22.901Z,2.60
2022-12-12T13:12:00.257Z,2.60
2022-12-12T13:14:38.611Z,2.62
2022-12-12T13:17:09.217Z,2.65
2022-12-12T13:19:40.653Z,2.64
2022-12-12T13:22:14.978Z,2.61
2022-12-12T13:24:51.587Z,2.59
2022-12-12T13:27:29.617Z,2.59
2022-12-12T13:30:02.981Z,2.57
2022-12-12T13:32:54.315Z,2.55
2022-12-12T13:35:29.367Z,2.55
2022-12-12T13:37:58.002Z,2.52
2022-12-12T13:40:30.565Z,2.51
2022-12-12T13:43:09.061Z,2.51
2022-12-12T13:45:43.915Z,2.49
2022-12-12T13:48:41.476Z,2.49
2022-12-12T13:51:41.303Z,2.52
2022-12-12T13:54:51.366Z,2.55
2022-12-12T13:57:31.668Z,2.59
2022-12-12T14:00:31.155Z,2.56
2022-12-12T14:03:25.451Z,2.52
2022-12-12T14:05:54.452Z,2.54
2022-12-12T14:08:32.529Z,2.53
2022-12-12T14:11:03.539Z,2.53
2022-12-12T14:13:45.382Z,2.52
2022-12-12T14:16:26.240Z,2.52
2022-12-12T14:19:35.637Z,2.49
2022-12-12T14:22:03.633Z,2.53
2022-12-12T14:25:05.667Z,2.50
2022-12-12T14:28:15.740Z,2.47
2022-12-12T14:30:52.729Z,2.51
2022-12-12T14:33:58.783Z,2.46
2022-12-12T14:36:52.147Z,2.44
2022-12-12T14:39:52.432Z,2.39
2022-12-12T14:42:27.872Z,2.41
2022-12-12T14:45:30.256Z,2.36
2022-12-12T14:48:19.689Z,2.31
2022-12-12T14:50:51.757Z,2.32
2022-12-12T14:53:23.841Z,2.30
2022-12-12T14:55:54.913Z,2.30
2022-12-12T14:58:26.439Z,2.31
2022-12-12T15:00:58.047Z,2.29
2022-12-12T15:03:33.379Z,2.27
2022-12-12T15:06:27.911Z,2.20
2022-12-12T15:08:59.217Z,2.18
2022-12-12T15:11:31.666Z,2.15
2022-12-12T15:14:01.007Z,2.12
2022-12-12T15:16:36.902Z,2.08
2022-12-12T15:19:05.207Z,2.06
2022-12-12T15:21:33.765Z,2.03
2022-12-12T15:24:02.902Z,2.00
2022-12-12T15:26:31.188Z,1.96
2022-12-12T15:28:59.306Z,1.92
2022-12-12T15:31:27.192Z,1.87
2022-12-12T15:33:55.206Z,1.83
2022-12-12T15:36:27.696Z,1.78
2022-12-12T15:39:15.608Z,1.72
2022-12-12T15:41:45.329Z,1.72
2022-12-12T15:44:19.121Z,1.68
2022-12-12T15:46:48.694Z,1.64
2022-12-12T15:49:39.689Z,1.56
2022-12-12T15:52:19.495Z,1.55
2022-12-12T15:54:51.248Z,1.51
2022-12-12T15:57:21.628Z,1.50
2022-12-12T15:59:55.596Z,1.50
2022-12-12T16:02:26.274Z,1.51
2022-12-12T16:05:04.813Z,1.50
2022-12-12T16:07:37.470Z,1.49
2022-12-12T16:10:23.019Z,1.44
2022-12-12T16:13:02.879Z,1.43
2022-12-12T16:15:35.007Z,1.41
2022-12-12T16:18:07.066Z,1.37
2022-12-12T16:20:35.974Z,1.33
2022-12-12T16:23:18.029Z,1.30
2022-12-12T16:25:47.441Z,1.27
2022-12-12T16:28:25.253Z,1.24
2022-12-12T16:30:57.345Z,1.22
2022-12-12T16:33:31.354Z,1.19
2022-12-12T16:36:01.641Z,1.16
2022-12-12T16:38:30.792Z,1.12
2022-12-12T16:41:02.984Z,1.10
2022-12-12T16:43:30.971Z,1.07
2022-12-12T16:45:59.344Z,1.03
2022-12-12T16:48:32.544Z,1.00
2022-12-12T16:51:03.685Z,0.97
2022-12-12T16:53:31.553Z,0.93
2022-12-12T16:56:01.059Z,0.91
2022-12-12T16:58:29.015Z,0.89
2022-12-12T17:00:58.951Z,0.87
2022-12-12T17:03:27.281Z,0.85
2022-12-12T17:05:55.300Z,0.83
2022-12-12T17:08:23.441Z,0.83
2022-12-12T17:10:53.412Z,0.82
2022-12-12T17:13:42.959Z,0.80
2022-12-12T17:16:11.099Z,0.79
2022-12-12T17:18:39.060Z,0.79
2022-12-12T17:21:07.283Z,0.76
2022-12-12T17:23:35.474Z,0.74
2022-12-12T17:26:05.066Z,0.70
2022-12-12T17:28:34.533Z,0.65
2022-12-12T17:31:07.945Z,0.59
2022-12-12T17:33:45.957Z,0.55
2022-12-12T17:36:17.724Z,0.50
2022-12-12T17:38:45.909Z,0.47
2022-12-12T17:41:13.676Z,0.45
2022-12-12T17:43:42.274Z,0.42
2022-12-12T17:46:17.451Z,0.39
2022-12-12T17:48:47.329Z,0.38
2022-12-12T17:51:17.128Z,0.36
2022-12-12T17:53:45.141Z,0.34
2022-12-12T17:56:14.901Z,0.32
2022-12-12T17:58:44.757Z,0.28
2022-12-12T18:01:15.802Z,0.25
2022-12-12T18:03:45.390Z,0.21
2022-12-12T18:06:14.510Z,0.17
2022-12-12T18:08:42.621Z,0.13
2022-12-12T18:11:12.986Z,0.12
2022-12-12T18:13:41.790Z,0.13
2022-12-12T18:16:12.934Z,0.13
2022-12-12T18:18:43.082Z,0.14
2022-12-12T18:21:23.534Z,0.13
2022-12-12T18:24:00.981Z,0.10
2022-12-12T18:26:29.154Z,0.08
2022-12-12T18:28:58.737Z,0.06
2022-12-12T18:31:26.954Z,0.05
2022-12-12T18:33:56.828Z,0.02
2022-12-12T18:36:26.924Z,0.01
2022-12-12T18:38:56.298Z,-0.03
2022-12-12T18:41:26.375Z,-0.07
2022-12-12T18:43:54.219Z,-0.08
2022-12-12T18:46:24.365Z,-0.10
2022-12-12T18:48:52.175Z,-0.14
2022-12-12T18:51:23.488Z,-0.16
2022-12-12T18:53:52.572Z,-0.18
2022-12-12T18:56:22.636Z,-0.20
2022-12-12T18:58:50.790Z,-0.22
2022-12-12T19:01:21.224Z,-0.24
2022-12-12T19:03:51.116Z,-0.26
2022-12-12T19:06:22.995Z,-0.30
2022-12-12T19:08:51.868Z,-0.33
2022-12-12T19:11:19.919Z,-0.35
2022-12-12T19:13:47.866Z,-0.37
2022-12-12T19:16:18.341Z,-0.39
2022-12-12T19:18:46.757Z,-0.40
2022-12-12T19:21:16.688Z,-0.42
2022-12-12T19:23:46.306Z,-0.42
2022-12-12T19:26:15.504Z,-0.42
2022-12-12T19:28:43.800Z,-0.42
2022-12-12T19:31:14.800Z,-0.43
2022-12-12T19:33:43.193Z,-0.45
2022-12-12T19:36:13.078Z,-0.47
2022-12-12T19:38:40.950Z,-0.47
2022-12-12T19:41:11.837Z,-0.49
2022-12-12T19:43:39.628Z,-0.51
2022-12-12T19:46:10.531Z,-0.54
2022-12-12T19:48:39.409Z,-0.57
2022-12-12T19:51:09.860Z,-0.59
2022-12-12T19:53:39.234Z,-0.61
2022-12-12T19:56:07.808Z,-0.63
2022-12-12T19:58:38.919Z,-0.67
2022-12-12T20:01:09.981Z,-0.70
2022-12-12T20:03:38.218Z,-0.74
2022-12-12T20:06:08.248Z,-0.76
2022-12-12T20:08:37.136Z,-0.77
2022-12-12T20:11:06.000Z,-0.79
2022-12-12T20:13:34.553Z,-0.81
2022-12-12T20:16:08.777Z,-0.84
2022-12-12T20:18:37.420Z,-0.85
2022-12-12T20:21:06.673Z,-0.86
2022-12-12T20:23:43.811Z,-0.89
2022-12-12T20:26:18.427Z,-0.92
2022-12-12T20:28:46.280Z,-0.93
2022-12-12T20:31:18.095Z,-0.94
2022-12-12T20:33:46.714Z,-0.96
2022-12-12T20:36:17.411Z,-0.95
2022-12-12T20:38:46.008Z,-0.94
2022-12-12T20:41:16.079Z,-0.92
2022-12-12T20:43:44.968Z,-0.93
2022-12-12T20:46:13.738Z,-0.94
2022-12-12T20:48:43.887Z,-0.97
2022-12-12T20:51:45.644Z,-0.97
2022-12-12T20:54:02.408Z,-1.01
2022-12-12T20:56:30.650Z,-1.05
2022-12-12T20:59:01.132Z,-1.07
2022-12-12T21:01:30.610Z,-1.08
2022-12-12T21:04:01.364Z,-1.11
2022-12-12T21:06:31.391Z,-1.13
2022-12-12T21:09:01.531Z,-1.16
2022-12-12T21:11:30.343Z,-1.18
2022-12-12T21:13:58.324Z,-1.20
2022-12-12T21:16:29.994Z,-1.23
2022-12-12T21:19:01.536Z,-1.25
2022-12-12T21:21:31.154Z,-1.26
2022-12-12T21:24:02.033Z,-1.28
2022-12-12T21:26:31.885Z,-1.30
2022-12-12T21:29:01.810Z,-1.32
2022-12-12T21:31:32.077Z,-1.34
2022-12-12T21:34:02.200Z,-1.39
2022-12-12T21:36:31.883Z,-1.39
2022-12-12T21:39:00.932Z,-1.39
2022-12-12T21:41:29.427Z,-1.41
2022-12-12T21:43:59.533Z,-1.40
2022-12-12T21:46:29.832Z,-1.38
2022-12-12T21:49:16.839Z,-1.36
2022-12-12T21:51:46.744Z,-1.36
2022-12-12T21:54:15.853Z,-1.38
2022-12-12T21:56:44.408Z,-1.40
2022-12-12T21:59:13.571Z,-1.43
2022-12-12T22:01:41.844Z,-1.44
2022-12-12T22:04:11.625Z,-1.47
2022-12-12T22:06:39.764Z,-1.48
2022-12-12T22:09:11.171Z,-1.50
2022-12-12T22:11:49.047Z,-1.54
2022-12-12T22:14:19.387Z,-1.55
2022-12-12T22:16:48.436Z,-1.58
2022-12-12T22:19:17.306Z,-1.59
2022-12-12T22:21:46.343Z,-1.61
2022-12-12T22:24:16.125Z,-1.62
2022-12-12T22:26:45.716Z,-1.64
2022-12-12T22:29:15.599Z,-1.65
2022-12-12T22:31:45.197Z,-1.68
2022-12-12T22:34:15.886Z,-1.71
2022-12-12T22:36:45.776Z,-1.71
2022-12-12T22:39:17.206Z,-1.72
2022-12-12T22:41:45.523Z,-1.74
2022-12-12T22:44:15.705Z,-1.77
2022-12-12T22:46:44.600Z,-1.78
2022-12-12T22:49:14.563Z,-1.79
2022-12-12T22:51:43.543Z,-1.78
2022-12-12T22:54:11.916Z,-1.78
2022-12-12T22:56:42.053Z,-1.78
2022-12-12T22:59:11.534Z,-1.78
2022-12-12T23:01:39.810Z,-1.76
2022-12-12T23:04:08.199Z,-1.76
2022-12-12T23:06:37.408Z,-1.77
2022-12-12T23:09:07.676Z,-1.79
2022-12-12T23:11:36.632Z,-1.80
2022-12-12T23:14:07.674Z,-1.82
2022-12-12T23:16:36.309Z,-1.84
2022-12-12T23:19:06.395Z,-1.86
2022-12-12T23:21:35.951Z,-1.88
2022-12-12T23:24:04.500Z,-1.90
2022-12-12T23:26:35.159Z,-1.91
2022-12-12T23:29:03.507Z,-1.94
2022-12-12T23:31:35.174Z,-1.96
2022-12-12T23:34:06.356Z,-1.98
2022-12-12T23:36:34.135Z,-2.00
2022-12-12T23:39:06.125Z,-2.01
2022-12-12T23:41:34.908Z,-2.03
2022-12-12T23:44:02.934Z,-2.05
2022-12-12T23:46:32.476Z,-2.06
2022-12-12T23:49:02.463Z,-2.08
2022-12-12T23:51:32.556Z,-2.08
2022-12-12T23:54:02.401Z,-2.11
2022-12-12T23:56:31.542Z,-2.13
2022-12-12T23:59:00.598Z,-2.15
